River Grove, Illinois
Current Conditions -  °F | °C
As of 4:46 PM on Monday 22 Dec 2014 (Local Time) from KORD Reporting Station
Light Rain Light Rain  
Wind Chill: 29°   Ceiling: 600
Heat Index: 37°   Visibility: 3mi
Dew Point: 36°   Wind: 14mph
Humidity: 93%   Direction: 120°ESE
Pressure: 29.68"   Gusts: NA
Location:  41.93°N, 87.83°W
Report Text: KORD 222246Z 12012KT 3SM -RA BR OVC006 03/02 A2968 RMK AO2 P0005
Loading
Personal Weather Stations






























Interactive Weather Map New forecast layout! Learn more

10-Day Weather Forecast

Advertisements
Track Severe Weather on mobile